Time;durP1;ratioP1;P1;durP2;ratioP2;P2;SDS_P1;SDS_P2;PMS_P1;PMS_P2;Temp;Humidity;BMP_temperature;BMP_pressure;BME280_temperature;BME280_humidity;BME280_pressure;Samples;Min_cycle;Max_cycle;Signal;HPM_P1;HPM_P2
2023/01/20 00:01:04;;;;;;;12.00;9.93;;;;;;;;;;5057035;28;20233;-59
2023/01/20 00:03:30;;;;;;;11.27;9.90;;;;;;;;;;5062705;28;20233;-58
2023/01/20 00:05:57;;;;;;;14.00;9.30;;;;;;;;;;5079514;28;20257;-59
2023/01/20 00:08:23;;;;;;;11.80;9.63;;;;;;;;;;5080300;28;20253;-59
2023/01/20 00:10:51;;;;;;;15.87;10.23;;;;;;;;;;5080756;28;20229;-59
2023/01/20 00:13:17;;;;;;;13.73;10.33;;;;;;;;;;5079155;28;20257;-59
2023/01/20 00:15:44;;;;;;;12.50;10.20;;;;;;;;;;5073822;28;20594;-59
2023/01/20 00:18:10;;;;;;;18.37;11.37;;;;;;;;;;5074616;28;20430;-59
2023/01/20 00:20:37;;;;;;;11.30;9.67;;;;;;;;;;5067358;28;20692;-58
2023/01/20 00:23:03;;;;;;;16.47;9.83;;;;;;;;;;5063625;28;20241;-58
2023/01/20 00:25:30;;;;;;;13.23;10.10;;;;;;;;;;5072147;28;20238;-58
2023/01/20 00:27:58;;;;;;;12.07;9.57;;;;;;;;;;5073430;28;20287;-59
2023/01/20 00:30:25;;;;;;;15.23;9.67;;;;;;;;;;5070700;28;20257;-59
2023/01/20 00:32:51;;;;;;;11.73;9.27;;;;;;;;;;5077711;28;20226;-59
2023/01/20 00:35:18;;;;;;;13.40;8.37;;;;;;;;;;5075608;28;20313;-58
2023/01/20 00:37:45;;;;;;;15.80;9.37;;;;;;;;;;5078902;28;20323;-59
2023/01/20 00:40:12;;;;;;;14.20;9.90;;;;;;;;;;5073545;28;20238;-58
2023/01/20 00:42:38;;;;;;;15.37;9.87;;;;;;;;;;5072931;28;20227;-58
2023/01/20 00:45:07;;;;;;;14.07;9.33;;;;;;;;;;5069605;28;20802;-58
2023/01/20 00:47:34;;;;;;;16.43;8.60;;;;;;;;;;5078659;28;20242;-59
2023/01/20 00:50:00;;;;;;;14.67;9.77;;;;;;;;;;5078425;28;20309;-58
2023/01/20 00:52:27;;;;;;;12.87;9.00;;;;;;;;;;5075696;28;20238;-59
2023/01/20 00:54:54;;;;;;;14.57;9.23;;;;;;;;;;5071581;28;20261;-59
2023/01/20 00:57:20;;;;;;;18.63;10.27;;;;;;;;;;5078184;28;20877;-60
2023/01/20 00:59:47;;;;;;;14.43;9.70;;;;;;;;;;5072003;28;20237;-60
2023/01/20 01:02:15;;;;;;;13.37;8.83;;;;;;;;;;5069692;28;20643;-59
2023/01/20 01:04:42;;;;;;;17.40;9.63;;;;;;;;;;5072045;28;20229;-58
2023/01/20 01:07:09;;;;;;;14.00;9.53;;;;;;;;;;5068232;28;20264;-58
2023/01/20 01:09:35;;;;;;;12.50;8.47;;;;;;;;;;5077206;28;20599;-59
2023/01/20 01:12:03;;;;;;;12.60;9.87;;;;;;;;;;5078158;28;20225;-58
2023/01/20 01:14:30;;;;;;;13.93;9.70;;;;;;;;;;5081347;28;20725;-59
2023/01/20 01:16:57;;;;;;;14.23;9.10;;;;;;;;;;5079204;28;20721;-59
2023/01/20 01:19:25;;;;;;;18.13;10.37;;;;;;;;;;5074339;28;20253;-59
2023/01/20 01:21:52;;;;;;;12.73;8.80;;;;;;;;;;5074936;28;20315;-59
2023/01/20 01:24:19;;;;;;;14.13;9.27;;;;;;;;;;5075233;28;20312;-59
2023/01/20 01:26:46;;;;;;;13.90;10.17;;;;;;;;;;5074507;28;20241;-59
2023/01/20 01:29:12;;;;;;;14.57;9.23;;;;;;;;;;5081856;28;21320;-59
2023/01/20 01:31:39;;;;;;;12.13;9.10;;;;;;;;;;5076285;28;20775;-58
2023/01/20 01:34:06;;;;;;;13.43;9.03;;;;;;;;;;5076669;28;20229;-58
2023/01/20 01:36:34;;;;;;;11.33;8.13;;;;;;;;;;5078258;28;20244;-58
2023/01/20 01:39:00;;;;;;;15.80;8.67;;;;;;;;;;5079280;28;20723;-58
2023/01/20 01:41:27;;;;;;;14.90;8.97;;;;;;;;;;5079958;28;20247;-58
2023/01/20 01:44:01;;;;;;;11.87;8.30;;;;;;;;;;5079679;28;20226;-59
2023/01/20 01:46:27;;;;;;;12.60;8.30;;;;;;;;;;5078488;28;20744;-58
2023/01/20 01:48:54;;;;;;;9.33;7.97;;;;;;;;;;5076832;28;20274;-58
2023/01/20 01:51:23;;;;;;;10.30;7.90;;;;;;;;;;5075625;28;20237;-58
2023/01/20 01:53:53;;;;;;;17.33;9.83;;;;;;;;;;5079867;28;20842;-58
2023/01/20 01:56:20;;;;;;;11.97;8.40;;;;;;;;;;5079130;28;20250;-58
2023/01/20 01:58:48;;;;;;;14.67;9.03;;;;;;;;;;5080453;28;20237;-58
2023/01/20 02:01:15;;;;;;;12.50;9.20;;;;;;;;;;5078483;28;20677;-60
2023/01/20 02:03:43;;;;;;;12.40;8.20;;;;;;;;;;5078920;28;20871;-65
2023/01/20 02:06:10;;;;;;;11.57;8.43;;;;;;;;;;5069572;28;20272;-60
2023/01/20 02:08:37;;;;;;;12.63;9.27;;;;;;;;;;5076509;28;20234;-59
2023/01/20 02:11:05;;;;;;;13.47;9.40;;;;;;;;;;5070547;28;20237;-58
2023/01/20 02:13:33;;;;;;;17.73;8.97;;;;;;;;;;5082280;28;20238;-58
2023/01/20 02:16:03;;;;;;;12.17;9.17;;;;;;;;;;5083519;28;20235;-57
2023/01/20 02:18:42;;;;;;;10.57;8.40;;;;;;;;;;5070826;28;20278;-58
2023/01/20 02:21:30;;;;;;;13.90;8.47;;;;;;;;;;5074770;28;20290;-58
2023/01/20 02:24:19;;;;;;;17.80;9.63;;;;;;;;;;5075776;28;20253;-58
2023/01/20 02:26:55;;;;;;;13.70;8.83;;;;;;;;;;5077994;28;20244;-59
2023/01/20 02:29:45;;;;;;;13.47;9.03;;;;;;;;;;5074411;28;20268;-58
2023/01/20 02:32:18;;;;;;;13.63;8.47;;;;;;;;;;5071360;28;20856;-58
2023/01/20 02:34:47;;;;;;;12.17;8.23;;;;;;;;;;5072707;28;20714;-58
2023/01/20 02:37:15;;;;;;;14.80;8.63;;;;;;;;;;5077888;28;20299;-58
2023/01/20 02:39:44;;;;;;;11.33;8.63;;;;;;;;;;5070721;28;20225;-58
2023/01/20 02:42:14;;;;;;;12.13;8.57;;;;;;;;;;5070158;28;20742;-58
2023/01/20 02:44:42;;;;;;;15.87;8.93;;;;;;;;;;5080687;28;20252;-58
2023/01/20 02:47:12;;;;;;;13.77;9.30;;;;;;;;;;5079649;28;20253;-58
2023/01/20 02:49:42;;;;;;;12.47;9.33;;;;;;;;;;5080228;28;20292;-59
2023/01/20 02:52:11;;;;;;;11.40;9.13;;;;;;;;;;5076566;28;20229;-58
2023/01/20 02:54:39;;;;;;;17.10;9.80;;;;;;;;;;5081804;28;20265;-58
2023/01/20 02:57:07;;;;;;;15.93;10.47;;;;;;;;;;5070589;28;20244;-59
2023/01/20 02:59:37;;;;;;;13.40;10.40;;;;;;;;;;5074689;28;20242;-58
2023/01/20 03:02:06;;;;;;;11.47;8.93;;;;;;;;;;5072967;28;20229;-60
2023/01/20 03:04:34;;;;;;;12.57;10.60;;;;;;;;;;5074639;28;20313;-59
2023/01/20 03:07:03;;;;;;;14.33;9.87;;;;;;;;;;5075036;28;20284;-59
2023/01/20 03:09:31;;;;;;;12.37;9.57;;;;;;;;;;5073143;28;21522;-60
2023/01/20 03:11:59;;;;;;;14.47;10.37;;;;;;;;;;5067966;28;20249;-59
2023/01/20 03:14:26;;;;;;;12.10;10.03;;;;;;;;;;5077414;28;20234;-60
2023/01/20 03:16:53;;;;;;;14.80;10.07;;;;;;;;;;5080360;28;20276;-60
2023/01/20 03:19:19;;;;;;;15.37;10.70;;;;;;;;;;5073863;28;20424;-59
2023/01/20 03:21:46;;;;;;;14.20;10.37;;;;;;;;;;5078383;28;20239;-59
2023/01/20 03:24:14;;;;;;;16.70;10.73;;;;;;;;;;5077194;28;20238;-60
2023/01/20 03:26:40;;;;;;;14.33;9.90;;;;;;;;;;5079737;28;20673;-59
2023/01/20 03:29:10;;;;;;;13.47;10.27;;;;;;;;;;5075978;28;20231;-60
2023/01/20 03:31:39;;;;;;;18.83;9.97;;;;;;;;;;5073058;28;20226;-59
2023/01/20 03:34:09;;;;;;;17.40;11.53;;;;;;;;;;5080488;28;20246;-59
2023/01/20 03:36:37;;;;;;;13.00;9.57;;;;;;;;;;5069313;28;20243;-60
2023/01/20 03:39:04;;;;;;;13.53;10.70;;;;;;;;;;5071301;28;20298;-60
2023/01/20 03:41:35;;;;;;;16.93;11.60;;;;;;;;;;5074949;28;20399;-60
2023/01/20 03:44:06;;;;;;;17.93;10.33;;;;;;;;;;5078807;28;20270;-59
2023/01/20 03:46:36;;;;;;;20.07;12.60;;;;;;;;;;5073557;28;20322;-59
2023/01/20 03:49:08;;;;;;;18.50;11.87;;;;;;;;;;5071052;28;20225;-60
2023/01/20 03:51:38;;;;;;;15.37;10.97;;;;;;;;;;5071669;28;20673;-60
2023/01/20 03:54:10;;;;;;;13.73;11.43;;;;;;;;;;5073075;28;20240;-59
2023/01/20 03:56:42;;;;;;;16.93;11.83;;;;;;;;;;5085063;28;20236;-59
2023/01/20 03:59:10;;;;;;;19.53;12.50;;;;;;;;;;5075404;28;20230;-60
2023/01/20 04:01:38;;;;;;;21.90;13.87;;;;;;;;;;5079618;28;20495;-59
2023/01/20 04:04:06;;;;;;;22.57;12.83;;;;;;;;;;5070777;28;20755;-59
2023/01/20 04:06:33;;;;;;;19.33;13.03;;;;;;;;;;5073618;28;20229;-59
2023/01/20 04:09:01;;;;;;;17.73;13.17;;;;;;;;;;5072952;28;20770;-60
2023/01/20 04:11:28;;;;;;;18.47;12.60;;;;;;;;;;5074328;28;20724;-59
2023/01/20 04:13:56;;;;;;;22.47;14.13;;;;;;;;;;5072382;28;20312;-59
2023/01/20 04:16:24;;;;;;;22.73;14.33;;;;;;;;;;5073934;28;20258;-59
2023/01/20 04:18:51;;;;;;;17.20;13.70;;;;;;;;;;5073759;28;20658;-60
2023/01/20 04:21:22;;;;;;;18.37;13.80;;;;;;;;;;5067476;28;21892;-59
2023/01/20 04:23:52;;;;;;;24.40;14.27;;;;;;;;;;5069240;28;20230;-59
2023/01/20 04:26:19;;;;;;;18.70;13.17;;;;;;;;;;5081127;28;20312;-59
2023/01/20 04:28:45;;;;;;;23.77;15.33;;;;;;;;;;5068115;28;20238;-59
2023/01/20 04:31:14;;;;;;;21.30;15.33;;;;;;;;;;5073489;28;20234;-60
2023/01/20 04:33:41;;;;;;;24.87;15.13;;;;;;;;;;5073349;28;20237;-59
2023/01/20 04:36:08;;;;;;;23.47;14.43;;;;;;;;;;5080883;28;20294;-59
2023/01/20 04:38:35;;;;;;;22.77;14.90;;;;;;;;;;5072572;28;22537;-59
2023/01/20 04:41:02;;;;;;;20.17;14.87;;;;;;;;;;5079361;28;20235;-59
2023/01/20 04:43:28;;;;;;;29.93;15.73;;;;;;;;;;5075783;28;20650;-59
2023/01/20 04:45:55;;;;;;;21.73;14.30;;;;;;;;;;5076351;28;20270;-60
2023/01/20 04:48:23;;;;;;;19.80;14.33;;;;;;;;;;5067685;28;20288;-59
2023/01/20 04:50:50;;;;;;;24.27;14.90;;;;;;;;;;5074196;28;20768;-59
2023/01/20 04:53:18;;;;;;;18.47;13.47;;;;;;;;;;5070138;28;20273;-59
2023/01/20 04:55:44;;;;;;;20.70;15.50;;;;;;;;;;5070177;28;20234;-59
2023/01/20 04:58:11;;;;;;;27.27;15.97;;;;;;;;;;5073840;28;20700;-58
2023/01/20 05:00:38;;;;;;;22.47;15.43;;;;;;;;;;5069500;28;20238;-59
2023/01/20 05:03:04;;;;;;;20.27;14.27;;;;;;;;;;5056872;28;20264;-59
2023/01/20 05:05:32;;;;;;;20.37;14.80;;;;;;;;;;5058577;28;20242;-59
2023/01/20 05:07:59;;;;;;;23.77;15.33;;;;;;;;;;5045846;28;20293;-59
2023/01/20 05:10:26;;;;;;;20.13;14.73;;;;;;;;;;5074629;28;20229;-59
2023/01/20 05:12:53;;;;;;;25.87;15.57;;;;;;;;;;5050999;28;20235;-59
2023/01/20 05:15:20;;;;;;;21.90;14.73;;;;;;;;;;5050486;28;20241;-59
2023/01/20 05:17:46;;;;;;;22.13;16.00;;;;;;;;;;5068821;28;20264;-59
2023/01/20 05:20:13;;;;;;;25.63;15.73;;;;;;;;;;5080056;28;20233;-58
2023/01/20 05:22:41;;;;;;;29.80;16.00;;;;;;;;;;5075413;28;20684;-58
2023/01/20 05:25:08;;;;;;;24.67;16.27;;;;;;;;;;5079163;28;20234;-58
2023/01/20 05:27:35;;;;;;;21.80;15.80;;;;;;;;;;5074184;28;20243;-59
2023/01/20 05:30:02;;;;;;;22.70;16.03;;;;;;;;;;5071726;28;20830;-59
2023/01/20 05:32:29;;;;;;;25.70;17.17;;;;;;;;;;5081994;28;20226;-59
2023/01/20 05:34:55;;;;;;;22.63;15.73;;;;;;;;;;5081392;28;20455;-58
2023/01/20 05:37:22;;;;;;;33.83;17.50;;;;;;;;;;5077691;28;20772;-58
2023/01/20 05:39:50;;;;;;;25.20;15.37;;;;;;;;;;5072457;28;20232;-59
2023/01/20 05:42:16;;;;;;;29.33;15.73;;;;;;;;;;5070906;28;20321;-58
2023/01/20 05:44:42;;;;;;;26.17;17.27;;;;;;;;;;5073089;28;20320;-58
2023/01/20 05:47:09;;;;;;;26.53;15.67;;;;;;;;;;5075074;28;20237;-59
2023/01/20 05:49:35;;;;;;;24.20;16.80;;;;;;;;;;5077902;28;20229;-59
2023/01/20 05:52:02;;;;;;;22.97;15.87;;;;;;;;;;5079034;28;20262;-59
2023/01/20 05:54:28;;;;;;;25.47;16.47;;;;;;;;;;5076241;28;20239;-59
2023/01/20 05:56:56;;;;;;;26.10;16.67;;;;;;;;;;5073315;28;20299;-59
2023/01/20 05:59:23;;;;;;;26.27;16.93;;;;;;;;;;5079607;28;20230;-59
2023/01/20 06:01:49;;;;;;;25.50;15.03;;;;;;;;;;5073216;28;20237;-59
2023/01/20 06:04:16;;;;;;;22.90;15.77;;;;;;;;;;5073192;28;20234;-59
2023/01/20 06:06:42;;;;;;;24.57;16.37;;;;;;;;;;5075140;28;20234;-59
2023/01/20 06:09:09;;;;;;;24.63;14.33;;;;;;;;;;5073086;28;20241;-58
2023/01/20 06:11:36;;;;;;;19.83;14.87;;;;;;;;;;5072074;28;20234;-58
2023/01/20 06:14:04;;;;;;;23.53;14.23;;;;;;;;;;5079917;28;20226;-58
2023/01/20 06:16:30;;;;;;;23.43;15.33;;;;;;;;;;5075175;28;20261;-58
2023/01/20 06:18:57;;;;;;;24.13;14.53;;;;;;;;;;5073086;28;20243;-58
2023/01/20 06:21:24;;;;;;;25.27;14.77;;;;;;;;;;5076006;28;20233;-58
2023/01/20 06:23:51;;;;;;;25.10;15.63;;;;;;;;;;5078289;28;20769;-59
2023/01/20 06:26:17;;;;;;;24.70;14.63;;;;;;;;;;5074357;28;20238;-59
2023/01/20 06:28:43;;;;;;;26.50;16.03;;;;;;;;;;5071393;28;20237;-59
2023/01/20 06:31:12;;;;;;;24.93;16.60;;;;;;;;;;5077443;28;20226;-59
2023/01/20 06:33:42;;;;;;;25.73;14.67;;;;;;;;;;5081593;28;20222;-59
2023/01/20 06:36:12;;;;;;;27.17;15.00;;;;;;;;;;5081798;28;20273;-59
2023/01/20 06:38:39;;;;;;;25.30;16.03;;;;;;;;;;5071289;28;20235;-59
2023/01/20 06:41:06;;;;;;;28.00;15.93;;;;;;;;;;5071934;28;20239;-59
2023/01/20 06:43:33;;;;;;;26.33;17.13;;;;;;;;;;5079041;28;20711;-59
2023/01/20 06:46:00;;;;;;;27.87;16.53;;;;;;;;;;5081645;28;20269;-59
2023/01/20 06:48:28;;;;;;;24.87;16.27;;;;;;;;;;5077916;28;20237;-59
2023/01/20 06:50:54;;;;;;;26.83;16.97;;;;;;;;;;5079305;28;20234;-59
2023/01/20 06:53:20;;;;;;;32.00;18.60;;;;;;;;;;5073581;28;20261;-59
2023/01/20 06:55:53;;;;;;;28.97;18.80;;;;;;;;;;5072022;28;20332;-59
2023/01/20 06:58:20;;;;;;;30.17;18.33;;;;;;;;;;5075901;28;20241;-59
2023/01/20 07:00:46;;;;;;;29.23;17.00;;;;;;;;;;5082287;28;20313;-59
2023/01/20 07:03:12;;;;;;;23.47;16.13;;;;;;;;;;5081494;28;20233;-59
2023/01/20 07:05:40;;;;;;;24.53;15.90;;;;;;;;;;5065208;28;20244;-58
2023/01/20 07:08:07;;;;;;;25.67;15.33;;;;;;;;;;5073566;28;20713;-58
2023/01/20 07:10:33;;;;;;;26.70;15.37;;;;;;;;;;5073903;28;20226;-59
2023/01/20 07:12:59;;;;;;;28.33;16.47;;;;;;;;;;5079813;28;20232;-58
2023/01/20 07:15:26;;;;;;;25.87;15.40;;;;;;;;;;5075545;28;20257;-58
2023/01/20 07:17:52;;;;;;;26.47;16.93;;;;;;;;;;5077618;28;20249;-59
2023/01/20 07:20:19;;;;;;;34.83;17.27;;;;;;;;;;5073950;28;20700;-59
2023/01/20 07:22:46;;;;;;;29.60;17.90;;;;;;;;;;5082002;28;20230;-59
2023/01/20 07:25:13;;;;;;;31.03;17.07;;;;;;;;;;5078603;28;20250;-58
2023/01/20 07:27:39;;;;;;;21.90;15.97;;;;;;;;;;5080765;28;20229;-59
2023/01/20 07:30:06;;;;;;;28.23;18.40;;;;;;;;;;5077540;28;20313;-59
2023/01/20 07:32:33;;;;;;;25.00;16.87;;;;;;;;;;5081296;28;20250;-58
2023/01/20 07:34:59;;;;;;;26.43;15.93;;;;;;;;;;5082488;28;20825;-59
2023/01/20 07:37:25;;;;;;;27.17;16.73;;;;;;;;;;5072666;28;20229;-59
2023/01/20 07:39:53;;;;;;;27.37;18.23;;;;;;;;;;5076425;28;20277;-59
2023/01/20 07:42:20;;;;;;;25.00;16.63;;;;;;;;;;5083981;28;20558;-58
2023/01/20 07:44:46;;;;;;;28.53;16.37;;;;;;;;;;5075352;28;20238;-59
2023/01/20 07:47:12;;;;;;;33.03;18.77;;;;;;;;;;5077966;28;20230;-58
2023/01/20 07:49:39;;;;;;;24.97;15.97;;;;;;;;;;5071594;28;20240;-58
2023/01/20 07:52:05;;;;;;;24.47;16.80;;;;;;;;;;5073936;28;20320;-58
2023/01/20 07:54:31;;;;;;;22.67;14.53;;;;;;;;;;5079161;28;20789;-58
2023/01/20 07:56:59;;;;;;;22.77;14.90;;;;;;;;;;5081733;28;20307;-58
2023/01/20 07:59:27;;;;;;;24.60;15.70;;;;;;;;;;5073311;28;20242;-58
2023/01/20 08:01:54;;;;;;;25.97;16.57;;;;;;;;;;5078522;28;20229;-59
2023/01/20 08:04:20;;;;;;;25.37;15.37;;;;;;;;;;5077375;28;20236;-59
2023/01/20 08:06:47;;;;;;;29.63;16.33;;;;;;;;;;5078797;28;20237;-58
2023/01/20 08:09:14;;;;;;;25.70;14.93;;;;;;;;;;5072407;28;20343;-59
2023/01/20 08:11:40;;;;;;;28.40;17.20;;;;;;;;;;5079596;28;20287;-59
2023/01/20 08:14:08;;;;;;;30.80;18.80;;;;;;;;;;5068963;28;20317;-58
2023/01/20 08:16:34;;;;;;;26.87;16.33;;;;;;;;;;5073957;28;20801;-58
2023/01/20 08:19:01;;;;;;;29.67;18.80;;;;;;;;;;5066729;28;21294;-58
2023/01/20 08:21:29;;;;;;;26.10;16.80;;;;;;;;;;5073145;28;20635;-58
2023/01/20 08:23:56;;;;;;;32.53;18.23;;;;;;;;;;5077129;28;20234;-58
2023/01/20 08:26:23;;;;;;;27.00;17.87;;;;;;;;;;5072442;28;20238;-58
2023/01/20 08:28:50;;;;;;;31.63;18.00;;;;;;;;;;5081867;28;20225;-58
2023/01/20 08:31:20;;;;;;;29.10;19.53;;;;;;;;;;5080638;28;20234;-59
2023/01/20 08:33:46;;;;;;;32.93;18.17;;;;;;;;;;5083353;28;20258;-58
2023/01/20 08:36:14;;;;;;;23.60;17.03;;;;;;;;;;5073868;28;20234;-59
2023/01/20 08:38:41;;;;;;;26.53;18.43;;;;;;;;;;5078860;28;20233;-58
2023/01/20 08:41:08;;;;;;;26.83;19.17;;;;;;;;;;5078682;28;20737;-60
2023/01/20 08:43:34;;;;;;;29.73;17.73;;;;;;;;;;5078634;28;20240;-58
2023/01/20 08:46:01;;;;;;;30.80;17.93;;;;;;;;;;5073314;28;20235;-58
2023/01/20 08:48:29;;;;;;;25.40;16.93;;;;;;;;;;5073663;28;20720;-57
2023/01/20 08:50:56;;;;;;;32.13;20.93;;;;;;;;;;5069883;28;20230;-57
2023/01/20 08:53:22;;;;;;;31.07;19.20;;;;;;;;;;5077813;28;20320;-58
2023/01/20 08:55:55;;;;;;;33.90;18.00;;;;;;;;;;5076554;28;20322;-58
2023/01/20 08:58:22;;;;;;;29.93;17.70;;;;;;;;;;5074687;28;20248;-58
2023/01/20 09:00:48;;;;;;;30.40;17.77;;;;;;;;;;5079670;28;20230;-59
2023/01/20 09:03:15;;;;;;;30.53;17.73;;;;;;;;;;5081189;28;20244;-59
2023/01/20 09:05:42;;;;;;;34.00;18.57;;;;;;;;;;5076264;28;20326;-58
2023/01/20 09:08:09;;;;;;;23.83;16.13;;;;;;;;;;5074393;28;20320;-59
2023/01/20 09:10:35;;;;;;;29.73;17.60;;;;;;;;;;5071990;28;20336;-59
2023/01/20 09:13:01;;;;;;;31.90;18.07;;;;;;;;;;5080338;28;20258;-59
2023/01/20 09:15:28;;;;;;;26.60;16.47;;;;;;;;;;5075045;28;20237;-58
2023/01/20 09:17:54;;;;;;;28.17;17.53;;;;;;;;;;5073715;28;20862;-58
2023/01/20 09:20:21;;;;;;;29.90;15.93;;;;;;;;;;5078799;28;20249;-58
2023/01/20 09:22:48;;;;;;;24.47;15.13;;;;;;;;;;5081424;28;20246;-58
2023/01/20 09:25:15;;;;;;;19.83;15.37;;;;;;;;;;5076090;28;20238;-58
2023/01/20 09:27:41;;;;;;;30.00;17.23;;;;;;;;;;5081454;28;20321;-57
2023/01/20 09:30:09;;;;;;;27.93;17.37;;;;;;;;;;5080053;28;20863;-58
2023/01/20 09:32:36;;;;;;;26.63;16.50;;;;;;;;;;5074876;28;20313;-58
2023/01/20 09:35:02;;;;;;;26.77;16.33;;;;;;;;;;5082407;28;20265;-58
2023/01/20 09:45:52;;;;;;;31.80;16.87;;;;;;;;;;5059630;28;20233;-59
2023/01/20 09:53:58;;;;;;;28.43;17.50;;;;;;;;;;5062054;28;20766;-58
2023/01/20 09:56:27;;;;;;;23.03;17.13;;;;;;;;;;5081129;28;20230;-58
2023/01/20 09:58:57;;;;;;;29.87;18.03;;;;;;;;;;5057703;28;20705;-60
2023/01/20 10:01:29;;;;;;;23.30;16.67;;;;;;;;;;5060836;28;20320;-59
2023/01/20 10:03:59;;;;;;;29.50;17.43;;;;;;;;;;5075827;28;20243;-59
2023/01/20 10:06:27;;;;;;;29.70;18.73;;;;;;;;;;5080240;28;20242;-60
2023/01/20 10:08:56;;;;;;;25.30;17.97;;;;;;;;;;5080805;28;20233;-61
2023/01/20 10:11:24;;;;;;;27.90;16.83;;;;;;;;;;5069806;28;20703;-60
2023/01/20 10:13:55;;;;;;;26.83;18.03;;;;;;;;;;5078775;28;20325;-59
2023/01/20 10:16:27;;;;;;;22.13;16.23;;;;;;;;;;5075333;28;20237;-64
2023/01/20 10:18:55;;;;;;;25.73;16.60;;;;;;;;;;5078421;28;20233;-61
2023/01/20 10:21:25;;;;;;;24.53;17.23;;;;;;;;;;5078130;28;21678;-59
2023/01/20 10:23:55;;;;;;;28.07;17.43;;;;;;;;;;5081031;28;20324;-58
2023/01/20 10:26:26;;;;;;;24.20;18.13;;;;;;;;;;5082133;28;20234;-60
2023/01/20 10:28:56;;;;;;;27.13;17.37;;;;;;;;;;5077880;28;20226;-60
2023/01/20 10:31:25;;;;;;;26.93;17.03;;;;;;;;;;5082248;28;20260;-60
2023/01/20 10:33:54;;;;;;;23.97;17.27;;;;;;;;;;5077133;28;20237;-60
2023/01/20 10:36:24;;;;;;;28.53;17.10;;;;;;;;;;5080488;28;20247;-59
2023/01/20 10:38:54;;;;;;;28.90;17.50;;;;;;;;;;5073142;28;20745;-60
2023/01/20 10:41:27;;;;;;;27.67;17.53;;;;;;;;;;5083900;28;20719;-60
2023/01/20 10:43:56;;;;;;;28.17;17.47;;;;;;;;;;5083048;28;20225;-60
2023/01/20 10:46:27;;;;;;;25.87;17.13;;;;;;;;;;5078029;28;20240;-59
2023/01/20 10:49:14;;;;;;;28.87;18.40;;;;;;;;;;5068979;28;20335;-59
2023/01/20 10:51:47;;;;;;;23.73;16.27;;;;;;;;;;5068985;28;20234;-58
2023/01/20 10:54:18;;;;;;;29.00;19.53;;;;;;;;;;5067500;28;21558;-58
2023/01/20 10:56:52;;;;;;;27.83;19.13;;;;;;;;;;5078696;28;20241;-58
2023/01/20 10:59:22;;;;;;;30.43;18.80;;;;;;;;;;5070010;28;20238;-59
2023/01/20 11:01:51;;;;;;;33.87;20.90;;;;;;;;;;5073842;28;20614;-57
2023/01/20 11:04:18;;;;;;;29.77;19.20;;;;;;;;;;5077377;28;20241;-58
2023/01/20 11:06:45;;;;;;;29.97;17.40;;;;;;;;;;5074521;28;20238;-61
2023/01/20 11:09:19;;;;;;;27.57;19.60;;;;;;;;;;5079221;28;20232;-58
2023/01/20 11:11:46;;;;;;;23.87;17.30;;;;;;;;;;5081507;28;20316;-59
2023/01/20 11:14:13;;;;;;;24.33;17.43;;;;;;;;;;5079632;28;20237;-59
2023/01/20 11:16:45;;;;;;;28.33;19.33;;;;;;;;;;5079011;28;20802;-59
2023/01/20 11:19:11;;;;;;;27.30;17.80;;;;;;;;;;5076095;28;20244;-59
2023/01/20 11:21:39;;;;;;;36.37;20.53;;;;;;;;;;5078018;28;20241;-59
2023/01/20 11:24:25;;;;;;;27.83;19.23;;;;;;;;;;5079374;28;20250;-59
2023/01/20 11:26:51;;;;;;;30.70;20.50;;;;;;;;;;5068396;28;20799;-60
2023/01/20 11:29:27;;;;;;;31.33;18.80;;;;;;;;;;5053899;28;20313;-60
2023/01/20 11:31:55;;;;;;;26.93;19.47;;;;;;;;;;5074423;28;20240;-60
2023/01/20 11:34:23;;;;;;;23.07;16.80;;;;;;;;;;5082680;28;20241;-60
2023/01/20 11:36:49;;;;;;;29.17;19.13;;;;;;;;;;5064665;28;20234;-59
2023/01/20 11:39:26;;;;;;;27.77;18.80;;;;;;;;;;5079941;28;20735;-59
2023/01/20 11:42:09;;;;;;;24.83;18.07;;;;;;;;;;5070000;28;20233;-59
2023/01/20 11:44:41;;;;;;;29.07;18.60;;;;;;;;;;5079307;28;20534;-59
2023/01/20 11:47:20;;;;;;;29.87;19.97;;;;;;;;;;5079673;28;20233;-59
2023/01/20 11:49:49;;;;;;;29.57;20.00;;;;;;;;;;5080006;28;20234;-61
2023/01/20 11:52:19;;;;;;;28.97;20.20;;;;;;;;;;5079509;28;20333;-60
2023/01/20 11:54:46;;;;;;;29.97;18.57;;;;;;;;;;5074851;28;20693;-60
2023/01/20 11:57:16;;;;;;;26.93;18.10;;;;;;;;;;5078816;28;20225;-58
2023/01/20 11:59:48;;;;;;;28.77;17.87;;;;;;;;;;5076000;28;20320;-58
2023/01/20 12:02:23;;;;;;;28.13;19.77;;;;;;;;;;5069299;28;20249;-59
2023/01/20 12:05:03;;;;;;;22.67;17.23;;;;;;;;;;5076803;28;20230;-59
2023/01/20 12:07:32;;;;;;;31.33;18.53;;;;;;;;;;5080087;28;20320;-58
2023/01/20 12:10:02;;;;;;;30.87;20.43;;;;;;;;;;5076616;28;20241;-59
2023/01/20 12:12:32;;;;;;;28.30;20.17;;;;;;;;;;5067934;28;20230;-61
2023/01/20 12:15:02;;;;;;;28.40;18.03;;;;;;;;;;5073332;28;20256;-60
2023/01/20 12:17:46;;;;;;;32.57;18.97;;;;;;;;;;5073860;28;20245;-60
2023/01/20 12:20:20;;;;;;;25.93;19.27;;;;;;;;;;5060826;28;20234;-62
2023/01/20 12:22:53;;;;;;;32.37;19.87;;;;;;;;;;5079739;28;20648;-58
2023/01/20 12:25:20;;;;;;;24.50;16.37;;;;;;;;;;5075883;28;20336;-59
2023/01/20 12:27:48;;;;;;;29.70;19.70;;;;;;;;;;5080360;28;20241;-59
2023/01/20 12:30:33;;;;;;;23.87;15.83;;;;;;;;;;5080030;28;20687;-60
2023/01/20 12:32:59;;;;;;;25.73;18.67;;;;;;;;;;5061089;28;20236;-60
2023/01/20 12:35:29;;;;;;;28.00;18.77;;;;;;;;;;5077842;28;20242;-61
2023/01/20 12:37:56;;;;;;;25.77;17.37;;;;;;;;;;5067645;28;20225;-61
2023/01/20 12:40:30;;;;;;;29.20;16.60;;;;;;;;;;5067610;28;20239;-60
2023/01/20 12:43:11;;;;;;;35.87;18.43;;;;;;;;;;5078553;28;20230;-58
2023/01/20 12:45:51;;;;;;;29.73;18.67;;;;;;;;;;5076296;28;20355;-59
2023/01/20 12:48:25;;;;;;;25.30;18.07;;;;;;;;;;5070616;28;20736;-62
2023/01/20 12:50:58;;;;;;;27.37;17.83;;;;;;;;;;5080184;28;20838;-60
2023/01/20 12:53:37;;;;;;;30.47;18.97;;;;;;;;;;5075646;28;20264;-58
2023/01/20 12:56:09;;;;;;;27.23;17.80;;;;;;;;;;5076263;28;20237;-57
2023/01/20 12:58:41;;;;;;;26.43;18.03;;;;;;;;;;5075360;28;20269;-58
2023/01/20 13:01:18;;;;;;;25.43;16.83;;;;;;;;;;5072647;28;20326;-57
2023/01/20 13:04:03;;;;;;;24.90;16.97;;;;;;;;;;5082894;28;20249;-59
2023/01/20 13:06:47;;;;;;;25.27;17.07;;;;;;;;;;5074713;28;20229;-59
2023/01/20 13:09:24;;;;;;;25.20;17.17;;;;;;;;;;5076597;28;20976;-58
2023/01/20 13:12:00;;;;;;;28.77;17.43;;;;;;;;;;5068254;28;20240;-58
2023/01/20 13:14:30;;;;;;;23.27;16.70;;;;;;;;;;5078268;28;20317;-60
2023/01/20 13:17:01;;;;;;;24.63;17.73;;;;;;;;;;5070155;28;20242;-59
2023/01/20 13:19:28;;;;;;;24.27;17.57;;;;;;;;;;5075159;28;20238;-60
2023/01/20 13:21:59;;;;;;;21.67;16.03;;;;;;;;;;5077014;28;20236;-59
2023/01/20 13:24:29;;;;;;;24.83;18.30;;;;;;;;;;5079673;28;20460;-58
2023/01/20 13:26:55;;;;;;;27.07;17.23;;;;;;;;;;5081505;28;20638;-59
2023/01/20 13:29:23;;;;;;;25.20;17.07;;;;;;;;;;5078124;28;20233;-60
2023/01/20 13:31:50;;;;;;;25.97;19.20;;;;;;;;;;5072483;28;20630;-57
2023/01/20 13:34:39;;;;;;;28.27;18.30;;;;;;;;;;5078055;28;20672;-57
2023/01/20 13:37:24;;;;;;;26.47;17.67;;;;;;;;;;5063042;28;20222;-58
2023/01/20 13:39:53;;;;;;;28.13;18.60;;;;;;;;;;5072704;28;20233;-57
2023/01/20 13:42:43;;;;;;;29.87;18.27;;;;;;;;;;5070006;28;20253;-58
2023/01/20 13:45:16;;;;;;;26.80;18.40;;;;;;;;;;5071420;28;20325;-58
2023/01/20 13:48:07;;;;;;;24.00;17.97;;;;;;;;;;5077941;28;20320;-57
2023/01/20 13:50:34;;;;;;;23.77;18.63;;;;;;;;;;5029759;28;20237;-59
2023/01/20 13:53:12;;;;;;;24.30;18.23;;;;;;;;;;5047488;28;20328;-59
2023/01/20 13:55:54;;;;;;;25.63;17.20;;;;;;;;;;5046156;28;20241;-58
2023/01/20 13:58:21;;;;;;;27.27;18.03;;;;;;;;;;5065852;28;20324;-61
2023/01/20 14:00:49;;;;;;;28.17;19.73;;;;;;;;;;5058546;28;20318;-57
2023/01/20 14:03:20;;;;;;;28.40;18.50;;;;;;;;;;5048818;28;20296;-60
2023/01/20 14:05:49;;;;;;;26.60;16.83;;;;;;;;;;5073082;28;20678;-60
2023/01/20 14:08:15;;;;;;;29.03;18.43;;;;;;;;;;5073399;28;20241;-59
2023/01/20 14:10:42;;;;;;;30.77;17.80;;;;;;;;;;5063709;28;20682;-59
2023/01/20 14:13:10;;;;;;;24.20;17.07;;;;;;;;;;5067541;28;20350;-61
2023/01/20 14:15:38;;;;;;;24.13;15.57;;;;;;;;;;5072401;28;20991;-58
2023/01/20 14:18:10;;;;;;;23.93;17.60;;;;;;;;;;5073127;28;20283;-58
2023/01/20 14:20:36;;;;;;;22.63;16.57;;;;;;;;;;5066795;28;20745;-58
2023/01/20 14:23:24;;;;;;;22.67;16.50;;;;;;;;;;5077278;28;20265;-58
2023/01/20 14:25:56;;;;;;;27.70;18.03;;;;;;;;;;5070388;28;20607;-58
2023/01/20 14:28:24;;;;;;;26.93;18.67;;;;;;;;;;5067448;28;20598;-57
2023/01/20 14:31:04;;;;;;;23.20;17.07;;;;;;;;;;5073113;28;20238;-57
2023/01/20 14:33:30;;;;;;;33.53;19.07;;;;;;;;;;5076457;28;20248;-59
2023/01/20 14:35:57;;;;;;;32.93;19.03;;;;;;;;;;5072080;27;20316;-59
2023/01/20 14:38:23;;;;;;;25.60;18.90;;;;;;;;;;5074600;28;20314;-58
2023/01/20 14:40:50;;;;;;;26.20;17.87;;;;;;;;;;5077644;28;20259;-57
2023/01/20 14:43:18;;;;;;;32.17;18.93;;;;;;;;;;5084545;28;20240;-58